LiveATC.Net - Listen to live air traffic control over the Internet!

ICAO: KMFE  IATA: MFE   Airport: Mc Allen Miller International Airport
City: Mc Allen   State/Province: Texas
Country: United States   Continent: North America
KMFE METAR Weather: KMFE 212053Z 02010KT 10SM CLR 29/11 A3012 RMK AO2 SLP198 T02940111 56025
KMFE Flight Activity (FlightAware)
KMFE Webcam: (Airport Webcams)
KMFE Airport Info   (AirNav) (iFlightPlanner)
KMFE VFR Sectional Chart   (iFlightPlanner) 
KMFE IFR Low Chart   (iFlightPlanner) 
KMFE Gnd/Twr/App
Feed Status: DOWN
Last heard on: 2016-08-21 07:09:03 (61 days 14 hours 49 minutes ago)
KMFE Gnd/Twr/App Audio Archives
Mc Allen Ground121.800
Mc Allen Tower118.500
San Angelo Radio122.200
Valley Approach121.000
Valley Departure120.700


Unauthorized use prohibited. See Terms of Service

Find LiveATC Audio Streams

Airport/ARTCC Code

(e.g., 124.400, 128.75)
Site-wide search

Browse LiveATC Feeds
LiveATC Coverage Map
Top 50 LiveATC Feeds
Bad Weather Areas

Offer a LiveATC Feed
Press Inquiries

LiveATC on iPhone
LiveATC on Android

Windows Phone
Windows 8/10

LiveATC Mobile
(Mobile browser)

ATC Audio Archives
Interesting Recordings

LiveATC Forums

Home Page
Make a Donation
LiveATC Store

Terms of Use
Privacy Policy

Canadian Air Freqs


FAA Airport Status
Nat'l Airspace Status
Arrival Demand Charts

Server Software By: